• Join FlightAware (Why Join?)
  • Login
  • US Flag 
02:56AM EDT


 

Airport Tracker/Info


-or-


 

Live Flight TrackerFlight Track Log ✈ N9191V ✈ 05-May-2013 ✈ KANP - KALB

Flight Track Log - Related Links

Times and Time Zones

All times are in EDT time to prevent confusion due to time zone crossing. See the N9191V flight status page for this flight to view local times or setup timezone preferences in your user account.

Time Position Orientation Groundspeed Altitude Reporting Facility
EDT Latitude Longitude Course Direction KTS MPH feet Rate Location/Type
03:25PM 38.9333 -76.5333 303° West 93 107 900  Level Potomac TRACON
03:26PM 38.9333 -76.4833 90° East 109 125 1,500 600 Climbing Potomac TRACON
03:27PM 38.9500 -76.4500 57° Northeast 112 129 2,100 600 Climbing Potomac TRACON
03:28PM 38.9500 -76.4167 90° East 101 116 2,700 420 Climbing Potomac TRACON
03:29PM 38.9667 -76.3833 57° Northeast 112 129 3,000 420 Climbing Potomac TRACON
03:30PM 39.1361 -76.5888 303° West  Level FlightAware Approximate
03:30PM 38.9833 -76.3500 57° Northeast 111 128 3,600  Level Potomac TRACON
03:31PM 39.0000 -76.3167 57° Northeast 113 130 4,200 540 Climbing Potomac TRACON
03:32PM 39.0333 -76.3000 21° North 123 142 4,700 360 Climbing Potomac TRACON
03:33PM 39.0667 -76.2833 21° North 129 148 5,000 180 Climbing Potomac TRACON
03:34PM 39.1000 -76.2667 21° North 150 173 5,100 240 Climbing Potomac TRACON
03:35PM 39.1333 -76.2667 360° North 141 162 5,600 360 Climbing Potomac TRACON
03:35PM 39.1833 -76.2667 360° North 141 162 5,900 360 Climbing Potomac TRACON
03:37PM 39.2167 -76.2667 360° North 140 161 6,300 360 Climbing Potomac TRACON
03:37PM 39.2500 -76.2667 360° North 142 163 6,700 300 Climbing Potomac TRACON
03:39PM 39.3000 -76.2667 360° North 149 171 7,000 120 Climbing Potomac TRACON
03:40PM 39.3500 -76.2667 360° North 162 186 7,000  Level Potomac TRACON
03:41PM 39.3833 -76.2667 360° North 166 191 7,000  Level Potomac TRACON
03:42PM 39.4333 -76.2667 360° North 162 186 7,000  Level Potomac TRACON
03:43PM 39.4833 -76.2667 360° North 167 192 7,000  Level Potomac TRACON
03:44PM 39.5333 -76.2667 360° North 164 189 7,000  Level Potomac TRACON
03:45PM 39.5667 -76.2667 360° North 163 188 7,000  Level Potomac TRACON
03:46PM 39.6167 -76.2667 360° North 164 189 7,000  Level Potomac TRACON
03:47PM 39.6667 -76.2667 360° North 162 186 7,000  Level Potomac TRACON
03:49PM 39.7441 -76.2280 21° North  Level FlightAware Approximate
03:56PM 40.0268 -76.2107 31° Northeast  Level FlightAware Approximate
03:56PM 40.0331 -76.0467 32° Northeast 165 190 7,500  Level New York Center
03:57PM 40.0636 -76.1821 31° Northeast  Level FlightAware Approximate
03:57PM 40.0675 -76.0222 29° Northeast 165 190 7,500  Level New York Center
03:58PM 40.1003 -76.1531 31° Northeast  Level FlightAware Approximate
03:58PM 40.1086 -75.9900 31° Northeast 154 177 7,500  Level New York Center
03:59PM 40.1369 -76.1239 31° Northeast  Level FlightAware Approximate
03:59PM 40.1411 -75.9625 33° Northeast 154 177 7,500  Level New York Center
04:00PM 40.1734 -76.0944 32° Northeast  Level FlightAware Approximate
04:00PM 40.1819 -75.9303 31° Northeast 149 171 7,500  Level New York Center
04:01PM 40.2096 -76.0643 32° Northeast  Level FlightAware Approximate
04:01PM 40.2228 -75.9033 27° Northeast 155 178 7,500  Level New York Center
04:02PM 40.2617 -75.8708 33° Northeast 161 185 7,500  Level New York Center
04:03PM 40.2961 -75.8461 29° Northeast 161 185 7,500  Level New York Center
04:04PM 40.3328 -75.8161 32° Northeast 161 185 7,500  Level New York Center
04:05PM 40.3717 -75.7836 32° Northeast 155 178 7,500  Level New York Center
04:06PM 40.4106 -75.7539 30° Northeast 155 178 7,500  Level New York Center
04:07PM 40.4431 -75.7261 33° Northeast 149 171 7,500  Level New York Center
04:08PM 40.4797 -75.6961 32° Northeast 149 171 7,500  Level New York Center
04:09PM 40.5186 -75.6633 33° Northeast 149 171 7,500  Level New York Center
04:10PM 40.5531 -75.6331 34° Northeast 149 171 7,500  Level New York Center
04:11PM 40.5897 -75.6028 32° Northeast 149 171 7,500  Level New York Center
04:12PM 40.6222 -75.5750 33° Northeast 149 171 7,500  Level New York Center
04:13PM 40.6567 -75.5444 34° Northeast 149 171 7,500  Level New York Center
04:14PM 40.6933 -75.5142 32° Northeast 149 171 7,500  Level New York Center
04:15PM 40.7281 -75.4839 33° Northeast 149 171 7,500  Level New York Center
04:17PM 40.7813 -75.4578 20° North  Level FlightAware Approximate
04:20PM 40.9194 -75.3294 29° Northeast 152 175 7,500  Level New York Center
04:21PM 40.9561 -75.2989 32° Northeast 168 193 7,500  Level New York Center
04:22PM 40.9944 -75.2742 26° Northeast 161 185 7,500  Level New York Center
04:23PM 41.0328 -75.2547 21° North 161 185 7,500  Level New York Center
04:24PM 41.0615 -75.2916 29° Northeast  Level FlightAware Approximate
04:24PM 41.0731 -75.2325 23° Northeast 156 180 7,600  Level New York Center
04:25PM 41.0999 -75.2638 29° Northeast  Level FlightAware Approximate
04:25PM 41.1158 -75.2078 24° Northeast 156 180 7,600  Level New York Center
04:26PM 41.1522 -75.1825 28° Northeast 156 180 7,600  Level New York Center
04:27PM 41.1883 -75.1603 25° Northeast 151 174 7,600  Level New York Center
04:28PM 41.2228 -75.1267 36° Northeast 151 174 7,600  Level New York Center
04:29PM 41.2617 -75.0931 33° Northeast 151 174 7,600 -60 Level New York Center
04:31PM 41.3000 -75.0543 37° Northeast  Level FlightAware Approximate
04:31PM 41.3325 -75.0314 37° Northeast 151 174 7,500  Level New York Center
04:32PM 41.3647 -75.0031 33° Northeast 151 174 7,500  Level New York Center
04:33PM 41.3992 -74.9722 34° Northeast 151 174 7,500  Level New York Center
04:34PM 41.4381 -74.9358 35° Northeast 151 174 7,500  Level New York Center
04:35PM 41.4728 -74.8992 38° Northeast 151 174 7,500  Level New York Center
04:36PM 41.5050 -74.8706 34° Northeast 151 174 7,500  Level New York Center
04:37PM 41.5436 -74.8369 33° Northeast 151 174 7,500  Level New York Center
04:38PM 41.5756 -74.8111 31° Northeast 151 174 7,500  Level New York Center
04:39PM 41.6122 -74.7747 37° Northeast 146 168 7,500  Level New York Center
04:40PM 41.6475 -74.7461 31° Northeast 147 169 7,600  Climbing Boston Center
04:41PM 41.6833 -74.7167 32° Northeast 147 169 7,600  Level Boston Center
04:42PM 41.7175 -74.6844 35° Northeast 147 169 7,600  Level Boston Center
04:43PM 41.7514 -74.6525 35° Northeast 147 169 7,600  Level Boston Center
04:44PM 41.7875 -74.6231 31° Northeast 147 169 7,600  Level Boston Center
04:45PM 41.8233 -74.5936 31° Northeast 147 169 7,600  Level Boston Center
04:47PM 41.8681 -74.5561 32° Northeast 147 169 7,600  Level Boston Center
04:48PM 41.9081 -74.5239 31° Northeast 147 169 7,600 -60 Level Boston Center
04:49PM 41.9442 -74.4917 34° Northeast 147 169 7,500 -60 Descending Boston Center
04:50PM 41.9739 -74.4619 37° Northeast 147 169 7,500  Level Boston Center
04:51PM 42.0078 -74.4322 33° Northeast 149 171 7,500  Level Boston Center
04:52PM 42.0522 -74.3917 34° Northeast 147 169 7,500  Level Boston Center
04:53PM 42.0839 -74.3647 32° Northeast 147 169 7,500  Level Boston Center
04:54PM 42.1283 -74.3242 34° Northeast 153 176 7,500  Level Boston Center
04:55PM 42.1539 -74.3025 32° Northeast 153 176 7,500  Level Boston Center
04:56PM 42.1875 -74.2725 33° Northeast 150 173 7,500  Level Boston Center
04:57PM 42.2192 -74.2456 32° Northeast 143 165 7,500 -180 Level Boston Center
04:58PM 42.2681 -74.2019 33° Northeast 149 171 7,200 -240 Descending Boston Center
04:59PM 42.3017 -74.1722 33° Northeast 151 174 7,000 -300 Descending Boston Center
05:00PM 42.3333 -74.1450 32° Northeast 154 177 6,700 -300 Descending Boston Center
05:01PM 42.3778 -74.1067 32° Northeast 156 180 6,400 -300 Descending Boston Center
05:02PM 42.3989 -74.0875 34° Northeast 152 175 6,200 -360 Descending Boston Center
05:03PM 42.4367 -74.0606 28° Northeast 151 174 5,900 -420 Descending Boston Center
05:04PM 42.4747 -74.0333 28° Northeast 149 171 5,400 -480 Descending Boston Center
05:05PM 42.5106 -74.0006 34° Northeast 151 174 5,000 -420 Descending Boston Center
05:06PM 42.5442 -73.9731 31° Northeast 154 177 4,600 -420 Descending Boston Center
05:07PM 42.5906 -73.9517 19° North 155 178 4,200 -420 Descending Boston Center
05:08PM 42.6344 -73.9386 12° North 155 178 3,700 -600 Descending Boston Center
05:09PM 42.6783 -73.9256 12° North 158 182 3,100 -540 Descending Boston Center
05:10PM 42.7222 -73.9125 12° North 159 183 2,700 -180 Descending Boston Center
05:11PM 42.7536 -73.8964 21° North 118 136 2,800 -360 Climbing Boston Center
05:12PM 42.7769 -73.8628 47° Northeast 104 120 2,000 -780 Descending Boston Center
05:13PM 42.7756 -73.8203 93° East 108 124 1,100 -900 Descending Boston Center
05:14PM 42.7589 -73.8058 148° Southeast 107 123 400 -1,020 Descending Boston Center
05:16PM 42.7491 -73.8020 36° Northeast  Level Estimated
05:23PM 42.7491 -73.8020 36° Northeast  Level Estimated
05:24PM 42.7491 -73.8020 36° Northeast  Level Estimated
05:25PM 42.7491 -73.8020 36° Northeast  Level Estimated